| time (UTC) | temp F | wind direction | speed MPH | gust MPH | rain 1hr in | rain 24hr in | rain mn in | humidity % | barometer mb |
| 20260505210520 | 82 | 231 | 5.0 | 11.0 | 0.00 | 0.00 | 0.00 | 33 | 1006.5 |
| 20260505205523 | 83 | 225 | 4.0 | 10.0 | 0.00 | 0.00 | 0.00 | 32 | 1006.5 |
| 20260505204521 | 83 | 240 | 6.0 | 13.0 | 0.00 | 0.00 | 0.00 | 32 | 1006.5 |
| 20260505203521 | 83 | 234 | 6.0 | 17.0 | 0.00 | 0.00 | 0.00 | 33 | 1006.6 |
| 20260505202518 | 84 | 218 | 4.0 | 10.0 | 0.00 | 0.00 | 0.00 | 33 | 1006.7 |
| 20260505201519 | 83 | 215 | 2.0 | 6.0 | 0.00 | 0.00 | 0.00 | 34 | 1006.7 |
| 20260505200521 | 83 | 184 | 2.0 | 7.0 | 0.00 | 0.00 | 0.00 | 35 | 1006.8 |
| 20260505195521 | 83 | 220 | 2.0 | 6.0 | 0.00 | 0.00 | 0.00 | 35 | 1006.8 |
| 20260505194521 | 84 | 216 | 3.0 | 8.0 | 0.00 | 0.00 | 0.00 | 35 | 1006.8 |
| 20260505193538 | 84 | 219 | 2.0 | 6.0 | 0.00 | 0.00 | 0.00 | 35 | 1007.0 |
| 20260505192519 | 84 | 230 | 4.0 | 9.0 | 0.00 | 0.00 | 0.00 | 34 | 1007.3 |
| 20260505191518 | 84 | 196 | 2.0 | 5.0 | 0.00 | 0.00 | 0.00 | 35 | 1007.3 |
| 20260505190519 | 83 | 222 | 3.0 | 9.0 | 0.00 | 0.00 | 0.00 | 35 | 1007.3 |
| 20260505185519 | 84 | 203 | 3.0 | 8.0 | 0.00 | 0.00 | 0.00 | 35 | 1007.5 |
| 20260505184519 | 83 | 210 | 3.0 | 8.0 | 0.00 | 0.00 | 0.00 | 37 | 1007.7 |
| 20260505183518 | 82 | 227 | 3.0 | 7.0 | 0.00 | 0.00 | 0.00 | 38 | 1007.9 |
| 20260505182519 | 82 | 220 | 3.0 | 7.0 | 0.00 | 0.00 | 0.00 | 37 | 1007.9 |
| 20260505181519 | 82 | 233 | 5.0 | 11.0 | 0.00 | 0.00 | 0.00 | 37 | 1008.0 |
| 20260505180519 | 82 | 227 | 5.0 | 12.0 | 0.00 | 0.00 | 0.00 | 38 | 1008.1 |
| 20260505175519 | 83 | 232 | 5.0 | 9.0 | 0.00 | 0.00 | 0.00 | 39 | 1008.2 |
| 20260505174520 | 82 | 150 | 2.0 | 5.0 | 0.00 | 0.00 | 0.00 | 41 | 1008.3 |
| 20260505173520 | 82 | 234 | 1.0 | 4.0 | 0.00 | 0.00 | 0.00 | 43 | 1008.4 |
| 20260505172519 | 81 | 219 | 1.0 | 4.0 | 0.00 | 0.00 | 0.00 | 44 | 1008.5 |
| 20260505171521 | 81 | 230 | 2.0 | 7.0 | 0.00 | 0.00 | 0.00 | 43 | 1008.7 |
| 20260505170520 | 81 | 230 | 3.0 | 7.0 | 0.00 | 0.00 | 0.00 | 43 | 1008.7 |
| 20260505165517 | 80 | 234 | 2.0 | 5.0 | 0.00 | 0.00 | 0.00 | 43 | 1008.9 |
| 20260505164538 | 80 | 207 | 1.0 | 6.0 | 0.00 | 0.00 | 0.00 | 45 | 1009.1 |
| 20260505163521 | 80 | 229 | 2.0 | 6.0 | 0.00 | 0.00 | 0.00 | 45 | 1009.2 |
| 20260505162521 | 80 | 200 | 1.0 | 5.0 | 0.00 | 0.00 | 0.00 | 46 | 1009.3 |
| 20260505161520 | 79 | 233 | 3.0 | 7.0 | 0.00 | 0.00 | 0.00 | 45 | 1009.4 |
| 20260505160518 | 78 | 230 | 2.0 | 7.0 | 0.00 | 0.00 | 0.00 | 46 | 1009.5 |
| 20260505152541 | 78 | 228 | 2.0 | 6.0 | 0.00 | 0.00 | 0.00 | 47 | 1010.0 |
| 20260505151521 | 77 | 205 | 1.0 | 4.0 | 0.00 | 0.00 | 0.00 | 48 | 1010.0 |
| 20260505150522 | 75 | 227 | 1.0 | 4.0 | 0.00 | 0.00 | 0.00 | 50 | 1010.1 |
| 20260505140520 | 72 | 18 | 0.0 | 2.0 | 0.00 | 0.00 | 0.00 | 54 | 1010.4 |
| 20260505124541 | 68 | 234 | 0.0 | 2.0 | 0.00 | 0.00 | 0.00 | 62 | 1010.2 |
| 20260505123521 | 66 | 252 | 0.0 | 2.0 | 0.00 | 0.00 | 0.00 | 65 | 1010.2 |
| 20260505122519 | 64 | 253 | 0.0 | 2.0 | 0.00 | 0.00 | 0.00 | 67 | 1010.3 |
| 20260505121518 | 63 | 240 | 1.0 | 3.0 | 0.00 | 0.00 | 0.00 | 69 | 1010.5 |
| 20260505120519 | 61 | 212 | 0.0 | 3.0 | 0.00 | 0.00 | 0.00 | 73 | 1010.6 |
| 20260505115518 | 58 | 267 | 0.0 | 1.0 | 0.00 | 0.00 | 0.00 | 77 | 1010.5 |
| 20260505114521 | 56 | 226 | 0.0 | 2.0 | 0.00 | 0.00 | 0.00 | 83 | 1010.4 |
| 20260505113521 | 55 | 302 | 0.0 | 2.0 | 0.00 | 0.00 | 0.00 | 86 | 1010.3 |
| 20260505112518 | 54 | 111 | 0.0 | 1.0 | 0.00 | 0.00 | 0.00 | 87 | 1010.0 |
| 20260505111539 | 54 | 96 | 1.0 | 2.0 | 0.00 | 0.00 | 0.00 | 87 | 1010.3 |
| 20260505110518 | 53 | 214 | 0.0 | 2.0 | 0.00 | 0.00 | 0.00 | 86 | 1010.7 |
| 20260505101519 | 50 | 31 | 0.0 | 1.0 | 0.00 | 0.00 | 0.00 | 90 | 1010.1 |
| 20260505100520 | 50 | 67 | 0.0 | 0.0 | 0.00 | 0.00 | 0.00 | 89 | 1010.0 |
| 20260505095520 | 50 | 258 | 0.0 | 3.0 | 0.00 | 0.00 | 0.00 | 88 | 1010.0 |
| 20260505094520 | 51 | 304 | 0.0 | 1.0 | 0.00 | 0.00 | 0.00 | 87 | 1009.8 |
| 20260505093520 | 51 | 59 | 0.0 | 1.0 | 0.00 | 0.00 | 0.00 | 86 | 1009.6 |
| 20260505092521 | 52 | 256 | 0.0 | 2.0 | 0.00 | 0.00 | 0.00 | 84 | 1009.7 |
| 20260505091520 | 52 | 261 | 0.0 | 1.0 | 0.00 | 0.00 | 0.00 | 84 | 1009.5 |
| 20260505090520 | 53 | 0.0 | 0.0 | 0.00 | 0.00 | 0.00 | 84 | 1009.5 | |
| 20260505085520 | 53 | 0.0 | 0.0 | 0.00 | 0.00 | 0.00 | 83 | 1009.5 | |
| 20260505084521 | 54 | 333 | 0.0 | 0.0 | 0.00 | 0.00 | 0.00 | 80 | 1009.5 |
| 20260505083518 | 54 | 246 | 1.0 | 2.0 | 0.00 | 0.00 | 0.00 | 80 | 1009.4 |
| 20260505082518 | 54 | 232 | 0.0 | 1.0 | 0.00 | 0.00 | 0.00 | 79 | 1009.5 |
| 20260505081521 | 53 | 227 | 0.0 | 1.0 | 0.00 | 0.00 | 0.00 | 80 | 1009.5 |
| 20260505080519 | 52 | 210 | 0.0 | 2.0 | 0.00 | 0.00 | 0.00 | 82 | 1009.5 |
| 20260505075518 | 52 | 0.0 | 0.0 | 0.00 | 0.00 | 0.00 | 85 | 1009.6 | |
| 20260505074518 | 51 | 71 | 0.0 | 1.0 | 0.00 | 0.00 | 0.00 | 86 | 1009.6 |
| 20260505073539 | 51 | 83 | 0.0 | 1.0 | 0.00 | 0.00 | 0.00 | 84 | 1009.5 |
| 20260505072519 | 51 | 206 | 0.0 | 1.0 | 0.00 | 0.00 | 0.00 | 84 | 1009.5 |
| 20260505071523 | 52 | 239 | 0.0 | 1.0 | 0.00 | 0.00 | 0.00 | 84 | 1009.5 |
| 20260505070519 | 52 | 82 | 0.0 | 1.0 | 0.00 | 0.00 | 0.00 | 82 | 1009.5 |
| 20260505065520 | 52 | 259 | 0.0 | 1.0 | 0.00 | 0.00 | 0.00 | 81 | 1009.5 |
| 20260505064540 | 52 | 9 | 0.0 | 1.0 | 0.00 | 0.00 | 0.00 | 80 | 1009.4 |
| 20260505063542 | 53 | 12 | 0.0 | 2.0 | 0.00 | 0.00 | 0.00 | 79 | 1009.5 |
| 20260505062541 | 53 | 0.0 | 0.0 | 0.00 | 0.00 | 0.00 | 79 | 1009.7 | |
| 20260505061520 | 54 | 41 | 0.0 | 2.0 | 0.00 | 0.00 | 0.00 | 79 | 1009.7 |
| 20260505060541 | 54 | 29 | 0.0 | 2.0 | 0.00 | 0.00 | 0.00 | 77 | 1009.8 |
| 20260505055520 | 54 | 43 | 0.0 | 2.0 | 0.00 | 0.00 | 0.00 | 76 | 1009.7 |
| 20260505054520 | 55 | 326 | 0.0 | 1.0 | 0.00 | 0.00 | 0.00 | 74 | 1009.8 |
| 20260505053520 | 55 | 0.0 | 0.0 | 0.00 | 0.00 | 0.00 | 74 | 1009.8 | |
| 20260505052521 | 56 | 0.0 | 0.0 | 0.00 | 0.00 | 0.00 | 73 | 1009.9 | |
| 20260505051517 | 56 | 296 | 0.0 | 2.0 | 0.00 | 0.00 | 0.00 | 70 | 1010.0 |
| 20260505050538 | 57 | 262 | 0.0 | 2.0 | 0.00 | 0.00 | 0.00 | 69 | 1010.1 |
| 20260505041518 | 60 | 146 | 0.0 | 0.0 | 0.00 | 0.00 | 0.00 | 59 | 1010.1 |
| 20260505040519 | 61 | 257 | 0.0 | 1.0 | 0.00 | 0.00 | 0.00 | 58 | 1010.1 |
| 20260505035522 | 61 | 231 | 0.0 | 1.0 | 0.00 | 0.00 | 0.00 | 57 | 1010.1 |
| 20260505034541 | 61 | 224 | 0.0 | 2.0 | 0.00 | 0.00 | 0.00 | 57 | 1010.1 |
| 20260505033519 | 61 | 218 | 0.0 | 2.0 | 0.00 | 0.00 | 0.00 | 56 | 1010.1 |
| 20260505032519 | 62 | 223 | 0.0 | 2.0 | 0.00 | 0.00 | 0.00 | 55 | 1010.2 |
| 20260505031519 | 62 | 232 | 0.0 | 2.0 | 0.00 | 0.00 | 0.00 | 55 | 1010.2 |
| 20260505030620 | 62 | 227 | 1.0 | 2.0 | 0.00 | 0.00 | 0.00 | 54 | 1010.3 |
| 20260505025520 | 62 | 228 | 0.0 | 2.0 | 0.00 | 0.00 | 0.00 | 53 | 1010.2 |
| 20260505024520 | 62 | 207 | 0.0 | 2.0 | 0.00 | 0.00 | 0.00 | 53 | 1010.2 |
| 20260505023521 | 63 | 221 | 1.0 | 2.0 | 0.00 | 0.00 | 0.00 | 52 | 1010.2 |
| 20260505022520 | 63 | 216 | 1.0 | 4.0 | 0.00 | 0.00 | 0.00 | 50 | 1010.3 |
| 20260505021520 | 63 | 224 | 0.0 | 2.0 | 0.00 | 0.00 | 0.00 | 49 | 1010.3 |
| 20260505020520 | 64 | 250 | 0.0 | 1.0 | 0.00 | 0.00 | 0.00 | 47 | 1010.3 |
| 20260505015520 | 65 | 240 | 0.0 | 2.0 | 0.00 | 0.00 | 0.00 | 46 | 1010.1 |
| 20260505014520 | 65 | 230 | 1.0 | 2.0 | 0.00 | 0.00 | 0.00 | 45 | 1010.1 |
| 20260505013521 | 65 | 230 | 1.0 | 2.0 | 0.00 | 0.00 | 0.00 | 45 | 1010.0 |
| 20260505012519 | 66 | 234 | 1.0 | 3.0 | 0.00 | 0.00 | 0.00 | 44 | 1009.9 |
| 20260505011518 | 66 | 233 | 1.0 | 2.0 | 0.00 | 0.00 | 0.00 | 44 | 1009.8 |
| 20260505010520 | 67 | 239 | 1.0 | 3.0 | 0.00 | 0.00 | 0.00 | 43 | 1009.7 |
| 20260505005521 | 67 | 238 | 1.0 | 3.0 | 0.00 | 0.00 | 0.00 | 43 | 1009.5 |
| 20260505004522 | 67 | 233 | 1.0 | 3.0 | 0.00 | 0.00 | 0.00 | 42 | 1009.4 |
| 20260505003519 | 68 | 234 | 1.0 | 3.0 | 0.00 | 0.00 | 0.00 | 42 | 1009.2 |
| 20260505002519 | 68 | 229 | 1.0 | 3.0 | 0.00 | 0.00 | 0.00 | 41 | 1009.1 |
| 20260505001520 | 68 | 233 | 1.0 | 3.0 | 0.00 | 0.00 | 0.00 | 41 | 1009.0 |
| 20260505000519 | 69 | 233 | 1.0 | 3.0 | 0.00 | 0.00 | 0.00 | 40 | 1008.8 |
| 20260504235519 | 69 | 228 | 1.0 | 4.0 | 0.00 | 0.00 | 0.00 | 40 | 1008.6 |
| 20260504234522 | 70 | 221 | 1.0 | 4.0 | 0.00 | 0.00 | 0.00 | 39 | 1008.5 |
| 20260504233519 | 71 | 229 | 1.0 | 3.0 | 0.00 | 0.00 | 0.00 | 38 | 1008.3 |
| 20260504232541 | 72 | 229 | 1.0 | 4.0 | 0.00 | 0.00 | 0.00 | 37 | 1008.2 |
| 20260504231520 | 72 | 224 | 1.0 | 4.0 | 0.00 | 0.00 | 0.00 | 37 | 1008.1 |
| 20260504230543 | 72 | 232 | 3.0 | 8.0 | 0.00 | 0.00 | 0.00 | 37 | 1008.0 |
| 20260504225520 | 72 | 232 | 2.0 | 6.0 | 0.00 | 0.00 | 0.00 | 37 | 1007.9 |
| 20260504224520 | 73 | 225 | 2.0 | 6.0 | 0.00 | 0.00 | 0.00 | 36 | 1007.9 |
| 20260504223520 | 73 | 225 | 2.0 | 7.0 | 0.00 | 0.00 | 0.00 | 36 | 1008.0 |
| 20260504222521 | 73 | 223 | 1.0 | 4.0 | 0.00 | 0.00 | 0.00 | 36 | 1008.0 |
| 20260504221520 | 73 | 226 | 2.0 | 8.0 | 0.00 | 0.00 | 0.00 | 36 | 1008.0 |
| 20260504220520 | 73 | 218 | 2.0 | 6.0 | 0.00 | 0.00 | 0.00 | 35 | 1008.1 |
| 20260504215520 | 74 | 227 | 3.0 | 10.0 | 0.00 | 0.00 | 0.00 | 35 | 1008.2 |
| 20260504214518 | 74 | 231 | 2.0 | 4.0 | 0.00 | 0.00 | 0.00 | 35 | 1008.3 |
| 20260504213518 | 74 | 216 | 2.0 | 7.0 | 0.00 | 0.00 | 0.00 | 35 | 1008.3 |
| 20260504212521 | 75 | 220 | 2.0 | 7.0 | 0.00 | 0.00 | 0.00 | 34 | 1008.4 |
| 20260504211522 | 74 | 227 | 1.0 | 5.0 | 0.00 | 0.00 | 0.00 | 35 | 1008.4 |